createdAt,value
2022-07-28T00:05:30.252Z,11.7
2022-07-28T00:07:32.316Z,11.7
2022-07-28T00:09:34.438Z,11.7
2022-07-28T00:11:50.265Z,11.7
2022-07-28T00:13:41.603Z,11.7
2022-07-28T00:15:43.657Z,11.7
2022-07-28T00:20:50.378Z,11.7
2022-07-28T00:22:52.450Z,11.7
2022-07-28T00:24:57.558Z,11.7
2022-07-28T00:26:59.658Z,11.7
2022-07-28T00:29:01.704Z,11.6
2022-07-28T00:31:05.035Z,11.6
2022-07-28T00:33:05.851Z,11.6
2022-07-28T00:35:08.337Z,11.6
2022-07-28T00:37:13.333Z,11.6
2022-07-28T00:45:21.369Z,11.5
2022-07-28T00:47:23.418Z,11.5
2022-07-28T00:49:25.550Z,11.5
2022-07-28T00:51:27.537Z,11.5
2022-07-28T00:59:38.863Z,11.5
2022-07-28T01:03:43.015Z,11.3
2022-07-28T01:07:50.319Z,11.2
2022-07-28T01:09:52.279Z,11.2
2022-07-28T01:11:54.381Z,11.2
2022-07-28T01:16:23.754Z,11.2
2022-07-28T01:18:21.581Z,11.2
2022-07-28T01:22:28.765Z,11.1
2022-07-28T01:28:34.969Z,11.1
2022-07-28T01:30:37.039Z,11.1
2022-07-28T01:32:39.101Z,11
2022-07-28T01:34:44.248Z,10.9
2022-07-28T01:36:46.323Z,10.9
2022-07-28T01:40:50.549Z,10.9
2022-07-28T01:42:52.532Z,10.9
2022-07-28T01:44:54.625Z,10.8
2022-07-28T01:46:56.813Z,10.7
2022-07-28T01:49:01.823Z,10.7
2022-07-28T01:53:05.992Z,10.7
2022-07-28T01:57:10.087Z,10.6
2022-07-28T01:59:12.212Z,10.5
2022-07-28T02:01:14.343Z,10.6
2022-07-28T02:03:19.382Z,10.5
2022-07-28T02:05:21.852Z,10.5
2022-07-28T02:07:23.526Z,10.5
2022-07-28T02:12:30.348Z,10.4
2022-07-28T02:14:32.426Z,10.4
2022-07-28T02:18:39.717Z,10.4
2022-07-28T02:20:41.777Z,10.3
2022-07-28T02:22:43.871Z,10.2
2022-07-28T02:24:46.058Z,10.2
2022-07-28T02:26:48.143Z,10.1
2022-07-28T02:28:50.233Z,10.1
2022-07-28T02:32:57.490Z,10.1
2022-07-28T02:34:59.582Z,10.1
2022-07-28T02:37:01.757Z,10
2022-07-28T02:39:03.858Z,10
2022-07-28T02:41:05.909Z,9.9
2022-07-28T02:43:08.080Z,9.9
2022-07-28T02:45:13.294Z,9.9
2022-07-28T02:47:15.390Z,9.9
2022-07-28T02:49:17.642Z,9.9
2022-07-28T02:51:19.741Z,9.9
2022-07-28T02:53:21.911Z,9.9
2022-07-28T02:55:24.113Z,9.9
2022-07-28T02:57:26.251Z,9.9
2022-07-28T02:59:31.591Z,9.9
2022-07-28T03:01:33.829Z,10
2022-07-28T03:03:35.941Z,10
2022-07-28T03:04:38.670Z,9.9
2022-07-28T03:06:40.787Z,10
2022-07-28T03:08:42.956Z,10
2022-07-28T03:10:45.154Z,9.9
2022-07-28T03:20:59.364Z,9.8
2022-07-28T03:23:01.453Z,9.8
2022-07-28T03:25:03.497Z,9.8
2022-07-28T03:27:08.819Z,9.8
2022-07-28T03:29:10.986Z,9.8
2022-07-28T03:37:19.458Z,9.8
2022-07-28T03:43:28.904Z,9.8
2022-07-28T03:45:30.967Z,9.8
2022-07-28T03:47:36.935Z,9.7
2022-07-28T03:49:35.196Z,9.7
2022-07-28T03:51:37.398Z,9.7
2022-07-28T03:53:39.537Z,9.7
2022-07-28T03:55:44.763Z,9.8
2022-07-28T03:57:46.828Z,9.8
2022-07-28T03:59:48.992Z,9.9
2022-07-28T04:02:53.700Z,9.8
2022-07-28T04:04:55.693Z,9.8
2022-07-28T04:06:57.773Z,9.8
2022-07-28T04:09:03.117Z,9.8
2022-07-28T04:11:05.286Z,9.8
2022-07-28T04:13:07.479Z,9.9
2022-07-28T04:15:09.646Z,9.9
2022-07-28T04:17:11.840Z,10
2022-07-28T04:19:13.875Z,10
2022-07-28T04:21:16.021Z,10.1
2022-07-28T04:23:21.281Z,10.2
2022-07-28T04:25:23.441Z,10.2
2022-07-28T04:31:29.856Z,10.3
2022-07-28T04:37:39.071Z,10.7
2022-07-28T04:39:41.161Z,10.8
2022-07-28T04:41:43.364Z,10.9
2022-07-28T04:43:45.424Z,10.9
2022-07-28T04:45:53.749Z,11
2022-07-28T04:47:49.525Z,11
2022-07-28T04:49:51.584Z,11.1
2022-07-28T04:51:57.428Z,12.1
2022-07-28T04:53:58.781Z,12.2
2022-07-28T04:56:00.836Z,12
2022-07-28T05:00:25.740Z,11.7
2022-07-28T05:02:27.786Z,11.7
2022-07-28T05:06:34.995Z,11.9
2022-07-28T05:08:37.066Z,11.9
2022-07-28T05:10:39.115Z,11.9
2022-07-28T05:14:43.279Z,12
2022-07-28T05:18:50.426Z,12.4
2022-07-28T05:22:54.527Z,12.6
2022-07-28T05:26:58.653Z,13.2
2022-07-28T05:29:00.728Z,13.8
2022-07-28T05:31:02.781Z,13.7
2022-07-28T05:33:07.884Z,15
2022-07-28T05:35:09.942Z,15.6
2022-07-28T05:37:12.130Z,16.4
2022-07-28T05:41:16.170Z,16.6
2022-07-28T05:51:29.651Z,16
2022-07-28T05:52:32.060Z,17
2022-07-28T05:54:34.114Z,17.7
2022-07-28T05:56:36.318Z,18.3
2022-07-28T05:58:38.227Z,19
2022-07-28T06:00:43.386Z,19.6
2022-07-28T06:08:51.578Z,20.6
2022-07-28T06:10:53.597Z,21.5
2022-07-28T06:12:55.663Z,20.7
2022-07-28T06:17:02.867Z,20.5
2022-07-28T06:25:10.932Z,19.9
2022-07-28T06:33:22.126Z,19.8
2022-07-28T06:37:26.588Z,20.1
2022-07-28T06:39:28.626Z,19.2
2022-07-28T06:41:30.646Z,19.7
2022-07-28T06:45:37.750Z,19.6
2022-07-28T06:48:42.363Z,20.1
2022-07-28T06:52:46.802Z,21.7
2022-07-28T06:54:49.023Z,21.8
2022-07-28T06:56:53.905Z,21.4
2022-07-28T07:07:03.978Z,20.5
2022-07-28T07:11:11.058Z,18.5
2022-07-28T07:13:13.987Z,18.8
2022-07-28T07:21:21.053Z,21.5
2022-07-28T07:29:32.168Z,19.2
2022-07-28T07:31:34.257Z,18.7
2022-07-28T07:35:38.219Z,18.9
2022-07-28T07:39:45.233Z,18.6
2022-07-28T07:44:51.744Z,18.3
2022-07-28T07:46:53.833Z,18.1
2022-07-28T07:48:55.828Z,18.1
2022-07-28T07:53:02.856Z,18.7
2022-07-28T07:55:04.879Z,18.8
2022-07-28T07:57:06.840Z,19.1
2022-07-28T07:59:08.851Z,19.2
2022-07-28T08:01:10.863Z,18.8
2022-07-28T08:03:12.869Z,18.9
2022-07-28T08:05:14.899Z,18.8
2022-07-28T08:07:22.003Z,18.5
2022-07-28T08:09:21.949Z,18.3
2022-07-28T08:11:23.975Z,18.4
2022-07-28T08:13:26.001Z,18.5
2022-07-28T08:15:27.976Z,19.1
2022-07-28T08:17:30.029Z,19.4
2022-07-28T08:19:31.983Z,19.7
2022-07-28T08:21:37.083Z,20.7
2022-07-28T08:25:41.083Z,20.8
2022-07-28T08:29:45.100Z,20.1
2022-07-28T08:31:47.146Z,19.4
2022-07-28T08:37:56.191Z,20.2
2022-07-28T08:39:58.240Z,20.3
2022-07-28T08:42:20.938Z,20.5
2022-07-28T08:44:22.902Z,20.5
2022-07-28T08:46:25.001Z,20.9
2022-07-28T08:52:33.997Z,20
2022-07-28T08:54:35.994Z,19.6
2022-07-28T08:56:37.992Z,19.6
2022-07-28T08:58:39.978Z,20.1
2022-07-28T09:00:42.033Z,20.5
2022-07-28T09:02:47.129Z,20.1
2022-07-28T09:04:49.059Z,20.2
2022-07-28T09:10:55.487Z,20.9
2022-07-28T09:12:57.432Z,20.8
2022-07-28T09:14:59.438Z,20.4
2022-07-28T09:17:05.330Z,20.7
2022-07-28T09:33:42.270Z,19.9
2022-07-28T09:35:25.383Z,20.1
2022-07-28T09:42:33.852Z,19.7
2022-07-28T09:48:43.088Z,19.9
2022-07-28T09:50:44.845Z,19.6
2022-07-28T09:52:46.836Z,20.1
2022-07-28T09:54:48.816Z,20.2
2022-07-28T10:02:59.855Z,20.3
2022-07-28T10:07:03.789Z,21
2022-07-28T10:09:05.785Z,20.5
2022-07-28T10:15:14.806Z,20.4
2022-07-28T10:17:16.781Z,20.8
2022-07-28T10:25:24.651Z,21.6
2022-07-28T10:27:29.712Z,21.4
2022-07-28T10:29:31.693Z,21.5
2022-07-28T10:31:33.648Z,21.3
2022-07-28T10:32:36.164Z,20.8
2022-07-28T10:34:38.136Z,20.8
2022-07-28T10:36:40.110Z,21.1
2022-07-28T10:40:47.140Z,21.2
2022-07-28T10:42:49.087Z,21.1
2022-07-28T10:55:03.972Z,20.9
2022-07-28T10:57:06.341Z,21.3
2022-07-28T11:03:13.763Z,21.8
2022-07-28T11:05:13.806Z,22.3
2022-07-28T11:07:15.765Z,22.4
2022-07-28T11:09:20.810Z,22
2022-07-28T11:11:22.766Z,21.9
2022-07-28T11:13:24.727Z,22
2022-07-28T11:15:26.659Z,22
2022-07-28T11:17:33.743Z,22.1
2022-07-28T11:23:37.556Z,22.6
2022-07-28T11:25:39.494Z,22.8
2022-07-28T11:27:44.517Z,22.7
2022-07-28T11:28:43.968Z,22.8
2022-07-28T11:30:46.045Z,22.9
2022-07-28T11:36:54.842Z,22.2
2022-07-28T11:49:06.533Z,22.6
2022-07-28T11:55:15.381Z,22.8
2022-07-28T11:57:17.321Z,23
2022-07-28T12:01:21.242Z,22.6
2022-07-28T12:05:28.185Z,22.7
2022-07-28T12:11:34.026Z,23.5
2022-07-28T12:13:35.941Z,23.1
2022-07-28T12:15:37.926Z,23.5
2022-07-28T12:17:40.683Z,23.5
2022-07-28T12:19:44.829Z,23.1
2022-07-28T12:21:48.222Z,23.1
2022-07-28T12:23:49.517Z,23.5
2022-07-28T12:26:05.492Z,23.7
2022-07-28T12:28:07.366Z,23.9
2022-07-28T12:30:09.279Z,23.9
2022-07-28T12:32:14.352Z,23.4
2022-07-28T12:34:16.587Z,23.8
2022-07-28T12:44:25.824Z,23
2022-07-28T12:50:34.639Z,23.3
2022-07-28T12:52:36.568Z,23
2022-07-28T12:54:38.448Z,23
2022-07-28T12:56:40.390Z,23.3
2022-07-28T12:58:42.281Z,23.4
2022-07-28T13:00:47.357Z,23.6
2022-07-28T13:02:49.269Z,24
2022-07-28T13:04:51.111Z,24.6
2022-07-28T13:06:52.995Z,24.4
2022-07-28T13:08:54.915Z,24.3
2022-07-28T13:10:59.146Z,25.2
2022-07-28T13:12:58.716Z,25.7
2022-07-28T13:15:03.681Z,25
2022-07-28T13:17:05.585Z,24.5
2022-07-28T13:19:07.459Z,24.2
2022-07-28T13:20:09.947Z,23.6
2022-07-28T13:22:11.817Z,23.4
2022-07-28T13:24:13.959Z,23.5
2022-07-28T13:26:15.555Z,23.5
2022-07-28T13:28:20.605Z,23.6
2022-07-28T13:30:22.494Z,23.7
2022-07-28T13:32:24.710Z,24
2022-07-28T13:34:26.192Z,24.2
2022-07-28T13:36:28.071Z,23.9
2022-07-28T13:38:29.935Z,23.8
2022-07-28T13:40:31.810Z,23.1
2022-07-28T13:44:38.660Z,23.6
2022-07-28T13:50:44.299Z,23.3
2022-07-28T13:54:48.028Z,23.7
2022-07-28T14:02:58.669Z,25
2022-07-28T14:05:00.486Z,25.6
2022-07-28T14:07:02.344Z,25.5
2022-07-28T14:11:09.136Z,24.1
2022-07-28T14:13:10.984Z,24.1
2022-07-28T14:15:12.818Z,24.2
2022-07-28T14:18:17.133Z,24.7
2022-07-28T14:20:19.005Z,24.7
2022-07-28T14:22:20.806Z,24.4
2022-07-28T14:24:25.740Z,24.4
2022-07-28T14:26:35.552Z,24.5
2022-07-28T14:28:29.404Z,24.4
2022-07-28T14:30:31.220Z,24.3
2022-07-28T14:32:33.123Z,24.4
2022-07-28T14:34:34.873Z,24.2
2022-07-28T14:36:36.715Z,23.8
2022-07-28T14:40:43.470Z,23.3
2022-07-28T14:44:47.138Z,23.1
2022-07-28T14:46:49.020Z,23.4
2022-07-28T14:48:50.949Z,24.1
2022-07-28T14:50:52.691Z,24.2
2022-07-28T14:54:59.472Z,24.2
2022-07-28T15:03:08.408Z,24.8
2022-07-28T15:05:10.009Z,24.2
2022-07-28T15:07:14.966Z,24.6
2022-07-28T15:09:16.764Z,24.4
2022-07-28T15:11:18.563Z,24.6
2022-07-28T15:12:21.034Z,23.7
2022-07-28T15:14:22.817Z,23.7
2022-07-28T15:20:31.350Z,23.6
2022-07-28T15:22:33.128Z,23.9
2022-07-28T15:28:38.562Z,24.9
2022-07-28T15:30:43.398Z,24.8
2022-07-28T15:32:56.299Z,24.4
2022-07-28T15:34:47.051Z,24.3
2022-07-28T15:36:48.823Z,24.3
2022-07-28T15:38:51.008Z,24.1
2022-07-28T15:40:52.973Z,24.9
2022-07-28T15:42:54.172Z,24.2
2022-07-28T15:45:00.768Z,23.8
2022-07-28T15:46:57.795Z,24.2
2022-07-28T15:49:02.729Z,24.1
2022-07-28T15:53:06.275Z,24.6
2022-07-28T15:55:08.071Z,24.5
2022-07-28T15:57:09.869Z,23.9
2022-07-28T15:59:11.663Z,24.5
2022-07-28T16:01:13.481Z,25.1
2022-07-28T16:03:18.402Z,25.3
2022-07-28T16:05:20.165Z,25.1
2022-07-28T16:07:22.411Z,25.3
2022-07-28T16:09:45.966Z,25.4
2022-07-28T16:11:46.262Z,25.3
2022-07-28T16:13:48.024Z,26
2022-07-28T16:15:52.968Z,25.7
2022-07-28T16:17:54.681Z,25.7
2022-07-28T16:19:56.451Z,24.4
2022-07-28T16:21:58.191Z,24.2
2022-07-28T16:23:59.982Z,24
2022-07-28T16:26:01.765Z,24.4
2022-07-28T16:28:03.534Z,24.9
2022-07-28T16:30:08.440Z,24.3
2022-07-28T16:32:10.219Z,23.9
2022-07-28T16:34:12.272Z,23.9
2022-07-28T16:38:15.607Z,23.1
2022-07-28T16:42:19.236Z,23
2022-07-28T16:46:26.050Z,22.8
2022-07-28T16:48:27.880Z,22.6
2022-07-28T16:50:29.741Z,22.3
2022-07-28T16:52:31.592Z,22.3
2022-07-28T16:54:33.493Z,22.1
2022-07-28T16:58:40.343Z,22.2
2022-07-28T17:00:42.259Z,22.2
2022-07-28T17:02:44.154Z,22
2022-07-28T17:03:46.646Z,22
2022-07-28T17:05:48.558Z,22
2022-07-28T17:16:01.288Z,21.6
2022-07-28T17:22:07.102Z,21.3
2022-07-28T17:24:09.001Z,21.4
2022-07-28T17:32:19.862Z,21.1
2022-07-28T17:34:21.824Z,21.1
2022-07-28T17:36:23.766Z,21.1
2022-07-28T17:38:30.961Z,21
2022-07-28T17:40:30.786Z,21
2022-07-28T17:42:32.731Z,21
2022-07-28T17:44:34.697Z,21
2022-07-28T17:46:36.770Z,20.9
2022-07-28T17:48:38.882Z,20.9
2022-07-28T17:50:40.595Z,20.8
2022-07-28T17:52:42.616Z,20.9
2022-07-28T17:54:47.629Z,20.8
2022-07-28T17:56:49.613Z,20.8
2022-07-28T17:59:54.104Z,20.7
2022-07-28T18:04:00.667Z,20.8
2022-07-28T18:12:09.098Z,20.6
2022-07-28T18:14:11.076Z,20.6
2022-07-28T18:28:28.065Z,20.3
2022-07-28T18:30:30.057Z,20.3
2022-07-28T18:32:32.035Z,20.2
2022-07-28T18:34:34.044Z,20.1
2022-07-28T18:36:39.095Z,20
2022-07-28T18:38:41.105Z,20
2022-07-28T18:40:43.085Z,20
2022-07-28T18:42:45.062Z,19.8
2022-07-28T18:44:47.074Z,19.8
2022-07-28T18:46:49.148Z,19.7
2022-07-28T18:48:56.616Z,19.6
2022-07-28T18:50:56.115Z,19.5
2022-07-28T18:52:58.101Z,19.5
2022-07-28T18:55:00.179Z,19.4
2022-07-28T18:56:02.642Z,19.4
2022-07-28T18:58:04.651Z,19.3
2022-07-28T19:00:06.648Z,19.3
2022-07-28T19:02:08.787Z,19.2
2022-07-28T19:04:14.136Z,19.1
2022-07-28T19:06:15.743Z,19.1
2022-07-28T19:08:17.739Z,19
2022-07-28T19:10:19.744Z,19
2022-07-28T19:12:21.745Z,18.9
2022-07-28T19:14:23.743Z,18.9
2022-07-28T19:16:25.854Z,18.8
2022-07-28T19:18:30.846Z,18.7
2022-07-28T19:20:32.896Z,18.7
2022-07-28T19:22:34.879Z,18.7
2022-07-28T19:24:36.892Z,18.6
2022-07-28T19:26:38.918Z,18.6
2022-07-28T19:28:40.915Z,18.5
2022-07-28T19:30:42.989Z,18.5
2022-07-28T19:32:48.066Z,18.5
2022-07-28T19:34:50.103Z,18.4
2022-07-28T19:36:52.084Z,18.3
2022-07-28T19:38:54.262Z,18.4
2022-07-28T19:40:56.140Z,18.3
2022-07-28T19:42:58.192Z,18.3
2022-07-28T19:45:00.220Z,18.2
2022-07-28T19:47:05.299Z,18.2
2022-07-28T19:49:07.390Z,18.2
2022-07-28T19:51:09.370Z,18.1
2022-07-28T19:53:32.027Z,18.1
2022-07-28T19:55:33.068Z,18.1
2022-07-28T19:57:35.090Z,18.1
2022-07-28T19:59:40.210Z,18
2022-07-28T20:01:46.606Z,18
2022-07-28T20:05:46.266Z,17.9
2022-07-28T20:07:48.323Z,17.9
2022-07-28T20:09:50.347Z,17.9
2022-07-28T20:11:52.369Z,17.9
2022-07-28T20:13:57.473Z,17.7
2022-07-28T20:15:59.492Z,17.8
2022-07-28T20:18:01.549Z,17.7
2022-07-28T20:32:18.805Z,17.5
2022-07-28T20:34:20.825Z,17.5
2022-07-28T20:47:38.660Z,17.1
2022-07-28T20:49:40.687Z,17.1
2022-07-28T20:51:45.282Z,17.2
2022-07-28T20:55:51.371Z,17.1
2022-07-28T20:57:54.032Z,17.1
2022-07-28T20:59:55.434Z,17.1
2022-07-28T21:03:59.509Z,17.1
2022-07-28T21:06:01.550Z,17.1
2022-07-28T21:08:05.718Z,17.1
2022-07-28T21:10:08.679Z,17.1
2022-07-28T21:12:10.696Z,17.1
2022-07-28T21:14:13.096Z,17
2022-07-28T21:18:16.828Z,16.9
2022-07-28T21:20:18.844Z,16.9
2022-07-28T21:32:34.128Z,16.7
2022-07-28T21:34:36.180Z,16.6
2022-07-28T21:38:43.328Z,16.6
2022-07-28T21:40:45.379Z,16.6
2022-07-28T21:42:47.429Z,16.6
2022-07-28T21:43:49.941Z,16.5
2022-07-28T21:45:52.075Z,16.5
2022-07-28T21:47:54.030Z,16.5
2022-07-28T21:49:56.056Z,16.5
2022-07-28T21:52:01.229Z,16.4
2022-07-28T21:54:03.338Z,16.4
2022-07-28T21:58:07.300Z,16.4
2022-07-28T22:00:09.364Z,16.3
2022-07-28T22:04:13.889Z,16.3
2022-07-28T22:06:18.611Z,16.3
2022-07-28T22:08:20.609Z,16.3
2022-07-28T22:10:22.656Z,16.3
2022-07-28T22:12:24.712Z,16.2
2022-07-28T22:14:26.761Z,16.2
2022-07-28T22:16:28.861Z,16.2
2022-07-28T22:20:35.977Z,16.1
2022-07-28T22:22:38.060Z,16.1
2022-07-28T22:24:40.113Z,16
2022-07-28T22:26:42.145Z,16
2022-07-28T22:28:44.187Z,15.9
2022-07-28T22:32:48.301Z,15.9
2022-07-28T22:34:53.409Z,15.8
2022-07-28T22:36:55.462Z,15.8
2022-07-28T22:38:57.509Z,15.8
2022-07-28T22:40:00.107Z,15.7
2022-07-28T22:44:04.176Z,15.7
2022-07-28T22:50:13.399Z,15.6
2022-07-28T22:54:17.817Z,15.6
2022-07-28T22:58:21.624Z,15.5
2022-07-28T23:00:23.690Z,15.5
2022-07-28T23:02:28.819Z,15.5
2022-07-28T23:04:30.849Z,15.5
2022-07-28T23:06:32.910Z,15.5
2022-07-28T23:08:34.974Z,15.5
2022-07-28T23:10:37.056Z,15.5
2022-07-28T23:12:39.101Z,15.4
2022-07-28T23:14:41.148Z,15.4
2022-07-28T23:16:46.364Z,15.2
2022-07-28T23:18:48.313Z,15.2
2022-07-28T23:20:50.392Z,15.2
2022-07-28T23:22:52.436Z,15.1
2022-07-28T23:24:54.509Z,15.1
2022-07-28T23:33:05.766Z,14.9
2022-07-28T23:35:07.831Z,14.9
2022-07-28T23:37:30.479Z,14.8
2022-07-28T23:45:41.740Z,14.7
2022-07-28T23:55:51.793Z,14.6
2022-07-28T23:59:59.103Z,14.6
